sensor_id;sensor_type;location;lat;lon;timestamp;temperature;humidity
41294;DHT22;27037;52.010;4.446;2023-03-14T00:01:22;11.00;99.90
41294;DHT22;27037;52.010;4.446;2023-03-14T00:03:49;11.00;99.90
41294;DHT22;27037;52.010;4.446;2023-03-14T00:06:15;11.00;99.90
41294;DHT22;27037;52.010;4.446;2023-03-14T00:08:42;11.00;99.90
41294;DHT22;27037;52.010;4.446;2023-03-14T00:11:12;11.00;99.90
41294;DHT22;27037;52.010;4.446;2023-03-14T00:13:38;11.00;99.90
41294;DHT22;27037;52.010;4.446;2023-03-14T00:16:06;11.00;99.90
41294;DHT22;27037;52.010;4.446;2023-03-14T00:18:32;11.00;99.90
41294;DHT22;27037;52.010;4.446;2023-03-14T00:21:02;10.90;99.90
41294;DHT22;27037;52.010;4.446;2023-03-14T00:23:29;10.90;99.90
41294;DHT22;27037;52.010;4.446;2023-03-14T00:26:04;10.90;99.90
41294;DHT22;27037;52.010;4.446;2023-03-14T00:28:29;10.90;99.90
41294;DHT22;27037;52.010;4.446;2023-03-14T00:30:55;10.80;99.90
41294;DHT22;27037;52.010;4.446;2023-03-14T00:33:21;10.80;99.90
41294;DHT22;27037;52.010;4.446;2023-03-14T00:38:20;10.70;99.90
41294;DHT22;27037;52.010;4.446;2023-03-14T00:40:45;10.60;99.90
41294;DHT22;27037;52.010;4.446;2023-03-14T00:43:11;10.60;99.90
41294;DHT22;27037;52.010;4.446;2023-03-14T00:45:36;10.60;99.90
41294;DHT22;27037;52.010;4.446;2023-03-14T00:48:02;10.60;99.90
41294;DHT22;27037;52.010;4.446;2023-03-14T00:50:28;10.60;99.90
41294;DHT22;27037;52.010;4.446;2023-03-14T00:52:53;10.60;99.90
41294;DHT22;27037;52.010;4.446;2023-03-14T00:55:19;10.50;99.90
41294;DHT22;27037;52.010;4.446;2023-03-14T00:57:44;10.50;99.90
41294;DHT22;27037;52.010;4.446;2023-03-14T01:00:10;10.50;99.90
41294;DHT22;27037;52.010;4.446;2023-03-14T01:02:37;10.50;99.90
41294;DHT22;27037;52.010;4.446;2023-03-14T01:05:03;10.50;99.90
41294;DHT22;27037;52.010;4.446;2023-03-14T01:07:29;10.50;99.90
41294;DHT22;27037;52.010;4.446;2023-03-14T01:09:54;10.40;99.90
41294;DHT22;27037;52.010;4.446;2023-03-14T01:12:20;10.50;99.90
41294;DHT22;27037;52.010;4.446;2023-03-14T01:14:46;10.40;99.90
41294;DHT22;27037;52.010;4.446;2023-03-14T01:17:11;10.40;99.90
41294;DHT22;27037;52.010;4.446;2023-03-14T01:19:37;10.40;99.90
41294;DHT22;27037;52.010;4.446;2023-03-14T01:22:03;10.40;99.90
41294;DHT22;27037;52.010;4.446;2023-03-14T01:24:29;10.40;99.90
41294;DHT22;27037;52.010;4.446;2023-03-14T01:26:54;10.40;99.90
41294;DHT22;27037;52.010;4.446;2023-03-14T01:29:20;10.40;99.90
41294;DHT22;27037;52.010;4.446;2023-03-14T01:31:45;10.40;99.90
41294;DHT22;27037;52.010;4.446;2023-03-14T01:34:11;10.40;99.90
41294;DHT22;27037;52.010;4.446;2023-03-14T01:36:37;10.40;99.90
41294;DHT22;27037;52.010;4.446;2023-03-14T01:39:03;10.40;99.90
41294;DHT22;27037;52.010;4.446;2023-03-14T01:41:29;10.40;99.90
41294;DHT22;27037;52.010;4.446;2023-03-14T01:43:54;10.40;99.90
41294;DHT22;27037;52.010;4.446;2023-03-14T01:49:15;10.40;99.90
41294;DHT22;27037;52.010;4.446;2023-03-14T01:52:06;10.40;99.90
41294;DHT22;27037;52.010;4.446;2023-03-14T01:54:39;10.40;99.90
41294;DHT22;27037;52.010;4.446;2023-03-14T01:57:08;10.40;99.90
41294;DHT22;27037;52.010;4.446;2023-03-14T01:59:37;10.40;99.90
41294;DHT22;27037;52.010;4.446;2023-03-14T02:02:05;10.40;99.90
41294;DHT22;27037;52.010;4.446;2023-03-14T02:04:34;10.40;99.90
41294;DHT22;27037;52.010;4.446;2023-03-14T02:07:12;10.40;99.90
41294;DHT22;27037;52.010;4.446;2023-03-14T02:09:39;10.40;99.90
41294;DHT22;27037;52.010;4.446;2023-03-14T02:12:07;10.40;99.90
41294;DHT22;27037;52.010;4.446;2023-03-14T02:14:35;10.40;99.90
41294;DHT22;27037;52.010;4.446;2023-03-14T02:17:03;10.40;99.90
41294;DHT22;27037;52.010;4.446;2023-03-14T02:22:11;10.40;99.90
41294;DHT22;27037;52.010;4.446;2023-03-14T02:24:49;10.40;99.90
41294;DHT22;27037;52.010;4.446;2023-03-14T02:27:18;10.40;99.90
41294;DHT22;27037;52.010;4.446;2023-03-14T02:30:04;10.40;99.90
41294;DHT22;27037;52.010;4.446;2023-03-14T02:32:33;10.40;99.90
41294;DHT22;27037;52.010;4.446;2023-03-14T02:35:03;10.40;99.90
41294;DHT22;27037;52.010;4.446;2023-03-14T02:37:36;10.40;99.90
41294;DHT22;27037;52.010;4.446;2023-03-14T02:40:04;10.40;99.90
41294;DHT22;27037;52.010;4.446;2023-03-14T02:42:30;10.40;99.90
41294;DHT22;27037;52.010;4.446;2023-03-14T02:47:34;10.30;99.90
41294;DHT22;27037;52.010;4.446;2023-03-14T02:50:14;10.30;99.90
41294;DHT22;27037;52.010;4.446;2023-03-14T02:52:41;10.30;99.90
41294;DHT22;27037;52.010;4.446;2023-03-14T02:55:08;10.30;99.90
41294;DHT22;27037;52.010;4.446;2023-03-14T02:57:34;10.30;99.90
41294;DHT22;27037;52.010;4.446;2023-03-14T03:00:00;10.30;99.90
41294;DHT22;27037;52.010;4.446;2023-03-14T03:02:27;10.30;99.90
41294;DHT22;27037;52.010;4.446;2023-03-14T03:04:53;10.30;99.90
41294;DHT22;27037;52.010;4.446;2023-03-14T03:07:18;10.30;99.90
41294;DHT22;27037;52.010;4.446;2023-03-14T03:09:45;10.30;99.90
41294;DHT22;27037;52.010;4.446;2023-03-14T03:12:11;10.30;99.90
41294;DHT22;27037;52.010;4.446;2023-03-14T03:14:36;10.30;99.90
41294;DHT22;27037;52.010;4.446;2023-03-14T03:17:05;10.30;99.90
41294;DHT22;27037;52.010;4.446;2023-03-14T03:19:32;10.30;99.90
41294;DHT22;27037;52.010;4.446;2023-03-14T03:21:58;10.40;99.90
41294;DHT22;27037;52.010;4.446;2023-03-14T03:24:24;10.40;99.90
41294;DHT22;27037;52.010;4.446;2023-03-14T03:26:50;10.40;99.90
41294;DHT22;27037;52.010;4.446;2023-03-14T03:29:16;10.40;99.90
41294;DHT22;27037;52.010;4.446;2023-03-14T03:31:41;10.40;99.90
41294;DHT22;27037;52.010;4.446;2023-03-14T03:34:07;10.40;99.90
41294;DHT22;27037;52.010;4.446;2023-03-14T03:36:33;10.40;99.90
41294;DHT22;27037;52.010;4.446;2023-03-14T03:38:59;10.40;99.90
41294;DHT22;27037;52.010;4.446;2023-03-14T03:41:25;10.40;99.90
41294;DHT22;27037;52.010;4.446;2023-03-14T03:43:51;10.40;99.90
41294;DHT22;27037;52.010;4.446;2023-03-14T03:46:16;10.40;99.90
41294;DHT22;27037;52.010;4.446;2023-03-14T03:48:42;10.40;99.90
41294;DHT22;27037;52.010;4.446;2023-03-14T03:51:14;10.40;99.90
41294;DHT22;27037;52.010;4.446;2023-03-14T03:53:41;10.40;99.90
41294;DHT22;27037;52.010;4.446;2023-03-14T03:56:07;10.40;99.90
41294;DHT22;27037;52.010;4.446;2023-03-14T03:58:32;10.40;99.90
41294;DHT22;27037;52.010;4.446;2023-03-14T04:00:58;10.40;99.90
41294;DHT22;27037;52.010;4.446;2023-03-14T04:03:24;10.40;99.90
41294;DHT22;27037;52.010;4.446;2023-03-14T04:06:00;10.40;99.90
41294;DHT22;27037;52.010;4.446;2023-03-14T04:08:26;10.30;99.90
41294;DHT22;27037;52.010;4.446;2023-03-14T04:10:57;10.30;99.90
41294;DHT22;27037;52.010;4.446;2023-03-14T04:13:23;10.30;99.90
41294;DHT22;27037;52.010;4.446;2023-03-14T04:15:48;10.30;99.90
41294;DHT22;27037;52.010;4.446;2023-03-14T04:18:14;10.20;99.90
41294;DHT22;27037;52.010;4.446;2023-03-14T04:20:40;10.20;99.90
41294;DHT22;27037;52.010;4.446;2023-03-14T04:23:05;10.20;99.90
41294;DHT22;27037;52.010;4.446;2023-03-14T04:25:31;10.10;99.90
41294;DHT22;27037;52.010;4.446;2023-03-14T04:27:56;10.10;99.90
41294;DHT22;27037;52.010;4.446;2023-03-14T04:30:22;10.00;99.90
41294;DHT22;27037;52.010;4.446;2023-03-14T04:32:47;10.00;99.90
41294;DHT22;27037;52.010;4.446;2023-03-14T04:35:13;9.90;99.90
41294;DHT22;27037;52.010;4.446;2023-03-14T04:37:39;9.90;99.90
41294;DHT22;27037;52.010;4.446;2023-03-14T04:40:05;9.90;99.90
41294;DHT22;27037;52.010;4.446;2023-03-14T04:42:32;9.90;99.90
41294;DHT22;27037;52.010;4.446;2023-03-14T04:44:58;9.90;99.90
41294;DHT22;27037;52.010;4.446;2023-03-14T04:47:23;9.90;99.90
41294;DHT22;27037;52.010;4.446;2023-03-14T04:49:49;9.80;99.90
41294;DHT22;27037;52.010;4.446;2023-03-14T04:52:15;9.80;99.90
41294;DHT22;27037;52.010;4.446;2023-03-14T04:54:40;9.80;99.90
41294;DHT22;27037;52.010;4.446;2023-03-14T04:57:06;9.80;99.90
41294;DHT22;27037;52.010;4.446;2023-03-14T04:59:32;9.80;99.90
41294;DHT22;27037;52.010;4.446;2023-03-14T05:01:57;9.80;99.90
41294;DHT22;27037;52.010;4.446;2023-03-14T05:04:23;9.80;99.90
41294;DHT22;27037;52.010;4.446;2023-03-14T05:06:48;9.70;99.90
41294;DHT22;27037;52.010;4.446;2023-03-14T05:09:14;9.70;99.90
41294;DHT22;27037;52.010;4.446;2023-03-14T05:11:40;9.70;99.90
41294;DHT22;27037;52.010;4.446;2023-03-14T05:14:06;9.70;99.90
41294;DHT22;27037;52.010;4.446;2023-03-14T05:16:31;9.70;99.90
41294;DHT22;27037;52.010;4.446;2023-03-14T05:18:57;9.70;99.90
41294;DHT22;27037;52.010;4.446;2023-03-14T05:21:23;9.70;99.90
41294;DHT22;27037;52.010;4.446;2023-03-14T05:23:48;9.70;99.90
41294;DHT22;27037;52.010;4.446;2023-03-14T05:26:14;9.70;99.90
41294;DHT22;27037;52.010;4.446;2023-03-14T05:28:42;9.70;99.90
41294;DHT22;27037;52.010;4.446;2023-03-14T05:31:08;9.50;99.90
41294;DHT22;27037;52.010;4.446;2023-03-14T05:33:34;9.40;99.90
41294;DHT22;27037;52.010;4.446;2023-03-14T05:35:59;9.20;99.90
41294;DHT22;27037;52.010;4.446;2023-03-14T05:38:25;9.10;99.90
41294;DHT22;27037;52.010;4.446;2023-03-14T05:40:51;9.00;99.90
41294;DHT22;27037;52.010;4.446;2023-03-14T05:43:16;8.90;99.90
41294;DHT22;27037;52.010;4.446;2023-03-14T05:45:42;8.80;99.90
41294;DHT22;27037;52.010;4.446;2023-03-14T05:48:08;8.70;99.90
41294;DHT22;27037;52.010;4.446;2023-03-14T05:50:34;8.70;99.90
41294;DHT22;27037;52.010;4.446;2023-03-14T05:52:59;8.60;99.90
41294;DHT22;27037;52.010;4.446;2023-03-14T05:55:25;8.50;99.90
41294;DHT22;27037;52.010;4.446;2023-03-14T05:57:53;8.50;99.90
41294;DHT22;27037;52.010;4.446;2023-03-14T06:00:19;8.40;99.90
41294;DHT22;27037;52.010;4.446;2023-03-14T06:02:44;8.40;99.90
41294;DHT22;27037;52.010;4.446;2023-03-14T06:05:10;8.40;99.90
41294;DHT22;27037;52.010;4.446;2023-03-14T06:07:35;8.30;99.90
41294;DHT22;27037;52.010;4.446;2023-03-14T06:10:01;8.30;99.90
41294;DHT22;27037;52.010;4.446;2023-03-14T06:12:27;8.30;99.90
41294;DHT22;27037;52.010;4.446;2023-03-14T06:14:53;8.30;99.90
41294;DHT22;27037;52.010;4.446;2023-03-14T06:17:19;8.20;99.90
41294;DHT22;27037;52.010;4.446;2023-03-14T06:19:44;8.20;99.90
41294;DHT22;27037;52.010;4.446;2023-03-14T06:22:10;8.20;99.90
41294;DHT22;27037;52.010;4.446;2023-03-14T06:24:35;8.20;99.90
41294;DHT22;27037;52.010;4.446;2023-03-14T06:27:01;8.20;99.90
41294;DHT22;27037;52.010;4.446;2023-03-14T06:29:29;8.10;99.90
41294;DHT22;27037;52.010;4.446;2023-03-14T06:31:55;8.10;99.90
41294;DHT22;27037;52.010;4.446;2023-03-14T06:34:20;8.10;99.90
41294;DHT22;27037;52.010;4.446;2023-03-14T06:36:46;8.00;99.90
41294;DHT22;27037;52.010;4.446;2023-03-14T06:39:12;8.00;99.90
41294;DHT22;27037;52.010;4.446;2023-03-14T06:41:37;8.00;99.90
41294;DHT22;27037;52.010;4.446;2023-03-14T06:44:03;7.90;99.90
41294;DHT22;27037;52.010;4.446;2023-03-14T06:46:29;7.90;99.90
41294;DHT22;27037;52.010;4.446;2023-03-14T06:48:54;8.00;99.90
41294;DHT22;27037;52.010;4.446;2023-03-14T06:51:20;7.90;99.90
41294;DHT22;27037;52.010;4.446;2023-03-14T06:53:46;7.90;99.90
41294;DHT22;27037;52.010;4.446;2023-03-14T06:56:11;7.90;99.90
41294;DHT22;27037;52.010;4.446;2023-03-14T06:58:37;7.90;99.90
41294;DHT22;27037;52.010;4.446;2023-03-14T07:01:03;7.90;99.90
41294;DHT22;27037;52.010;4.446;2023-03-14T07:03:28;7.90;99.90
41294;DHT22;27037;52.010;4.446;2023-03-14T07:05:54;7.90;99.90
41294;DHT22;27037;52.010;4.446;2023-03-14T07:08:20;7.90;99.90
41294;DHT22;27037;52.010;4.446;2023-03-14T07:10:45;7.90;99.90
41294;DHT22;27037;52.010;4.446;2023-03-14T07:13:11;8.00;99.90
41294;DHT22;27037;52.010;4.446;2023-03-14T07:15:36;7.90;99.90
41294;DHT22;27037;52.010;4.446;2023-03-14T07:18:02;7.90;99.90
41294;DHT22;27037;52.010;4.446;2023-03-14T07:20:28;7.90;99.90
41294;DHT22;27037;52.010;4.446;2023-03-14T07:22:54;7.90;99.90
41294;DHT22;27037;52.010;4.446;2023-03-14T07:25:20;8.00;99.90
41294;DHT22;27037;52.010;4.446;2023-03-14T07:27:46;8.00;99.90
41294;DHT22;27037;52.010;4.446;2023-03-14T07:30:14;8.00;99.90
41294;DHT22;27037;52.010;4.446;2023-03-14T07:32:39;8.00;99.90
41294;DHT22;27037;52.010;4.446;2023-03-14T07:35:06;8.00;99.90
41294;DHT22;27037;52.010;4.446;2023-03-14T07:37:32;7.90;99.90
41294;DHT22;27037;52.010;4.446;2023-03-14T07:39:57;7.90;99.90
41294;DHT22;27037;52.010;4.446;2023-03-14T07:42:23;7.90;99.90
41294;DHT22;27037;52.010;4.446;2023-03-14T07:44:49;7.80;99.90
41294;DHT22;27037;52.010;4.446;2023-03-14T07:47:14;7.80;99.90
41294;DHT22;27037;52.010;4.446;2023-03-14T07:49:40;7.70;99.90
41294;DHT22;27037;52.010;4.446;2023-03-14T07:52:05;7.50;99.90
41294;DHT22;27037;52.010;4.446;2023-03-14T07:54:31;7.30;99.90
41294;DHT22;27037;52.010;4.446;2023-03-14T07:56:57;7.20;99.90
41294;DHT22;27037;52.010;4.446;2023-03-14T07:59:26;7.10;99.90
41294;DHT22;27037;52.010;4.446;2023-03-14T08:01:52;7.00;99.90
41294;DHT22;27037;52.010;4.446;2023-03-14T08:04:17;6.90;99.90
41294;DHT22;27037;52.010;4.446;2023-03-14T08:06:43;6.90;99.90
41294;DHT22;27037;52.010;4.446;2023-03-14T08:09:08;6.80;99.90
41294;DHT22;27037;52.010;4.446;2023-03-14T08:11:34;6.70;99.90
41294;DHT22;27037;52.010;4.446;2023-03-14T08:14:00;6.60;99.90
41294;DHT22;27037;52.010;4.446;2023-03-14T08:16:25;6.60;99.90
41294;DHT22;27037;52.010;4.446;2023-03-14T08:18:51;6.60;99.90
41294;DHT22;27037;52.010;4.446;2023-03-14T08:21:16;6.60;99.90
41294;DHT22;27037;52.010;4.446;2023-03-14T08:23:42;6.60;99.90
41294;DHT22;27037;52.010;4.446;2023-03-14T08:26:08;6.70;99.90
41294;DHT22;27037;52.010;4.446;2023-03-14T08:28:33;6.60;99.90
41294;DHT22;27037;52.010;4.446;2023-03-14T08:31:00;6.70;99.90
41294;DHT22;27037;52.010;4.446;2023-03-14T08:33:27;6.60;99.90
41294;DHT22;27037;52.010;4.446;2023-03-14T08:35:58;6.50;99.90
41294;DHT22;27037;52.010;4.446;2023-03-14T08:38:24;6.50;99.90
41294;DHT22;27037;52.010;4.446;2023-03-14T08:40:58;6.40;99.90
41294;DHT22;27037;52.010;4.446;2023-03-14T08:43:25;6.30;99.90
41294;DHT22;27037;52.010;4.446;2023-03-14T08:45:51;6.20;99.90
41294;DHT22;27037;52.010;4.446;2023-03-14T08:48:17;6.20;99.90
41294;DHT22;27037;52.010;4.446;2023-03-14T08:50:42;6.30;99.90
41294;DHT22;27037;52.010;4.446;2023-03-14T08:53:09;6.30;99.90
41294;DHT22;27037;52.010;4.446;2023-03-14T08:55:34;6.40;99.90
41294;DHT22;27037;52.010;4.446;2023-03-14T08:58:00;6.50;99.90
41294;DHT22;27037;52.010;4.446;2023-03-14T09:00:25;6.60;99.90
41294;DHT22;27037;52.010;4.446;2023-03-14T09:02:51;6.60;99.90
41294;DHT22;27037;52.010;4.446;2023-03-14T09:05:16;6.70;99.90
41294;DHT22;27037;52.010;4.446;2023-03-14T09:07:42;6.80;99.90
41294;DHT22;27037;52.010;4.446;2023-03-14T09:10:09;6.80;99.90
41294;DHT22;27037;52.010;4.446;2023-03-14T09:12:35;6.90;99.90
41294;DHT22;27037;52.010;4.446;2023-03-14T09:15:00;6.90;99.90
41294;DHT22;27037;52.010;4.446;2023-03-14T09:17:26;7.00;99.90
41294;DHT22;27037;52.010;4.446;2023-03-14T09:19:52;7.00;99.90
41294;DHT22;27037;52.010;4.446;2023-03-14T09:22:17;7.10;99.90
41294;DHT22;27037;52.010;4.446;2023-03-14T09:24:43;7.10;99.90
41294;DHT22;27037;52.010;4.446;2023-03-14T09:27:09;7.10;99.90
41294;DHT22;27037;52.010;4.446;2023-03-14T09:29:34;7.20;99.90
41294;DHT22;27037;52.010;4.446;2023-03-14T09:32:00;7.20;99.90
41294;DHT22;27037;52.010;4.446;2023-03-14T09:34:26;7.20;99.90
41294;DHT22;27037;52.010;4.446;2023-03-14T09:36:52;7.00;99.90
41294;DHT22;27037;52.010;4.446;2023-03-14T09:39:18;6.80;99.90
41294;DHT22;27037;52.010;4.446;2023-03-14T09:41:46;6.60;99.90
41294;DHT22;27037;52.010;4.446;2023-03-14T09:46:44;6.30;99.90
41294;DHT22;27037;52.010;4.446;2023-03-14T09:49:23;6.20;99.90
41294;DHT22;27037;52.010;4.446;2023-03-14T09:51:52;6.20;99.90
41294;DHT22;27037;52.010;4.446;2023-03-14T09:55:06;6.30;99.90
41294;DHT22;27037;52.010;4.446;2023-03-14T09:57:26;6.40;99.90
41294;DHT22;27037;52.010;4.446;2023-03-14T09:59:56;6.50;99.90
41294;DHT22;27037;52.010;4.446;2023-03-14T10:02:24;6.60;99.90
41294;DHT22;27037;52.010;4.446;2023-03-14T10:04:52;6.80;99.90
41294;DHT22;27037;52.010;4.446;2023-03-14T10:07:30;6.90;99.90
41294;DHT22;27037;52.010;4.446;2023-03-14T10:09:57;7.00;99.90
41294;DHT22;27037;52.010;4.446;2023-03-14T10:12:45;7.10;99.90
41294;DHT22;27037;52.010;4.446;2023-03-14T10:15:13;7.20;99.90
41294;DHT22;27037;52.010;4.446;2023-03-14T10:17:47;7.30;99.90
41294;DHT22;27037;52.010;4.446;2023-03-14T10:22:53;7.30;99.90
41294;DHT22;27037;52.010;4.446;2023-03-14T10:25:27;7.30;99.90
41294;DHT22;27037;52.010;4.446;2023-03-14T10:27:53;7.30;99.90
41294;DHT22;27037;52.010;4.446;2023-03-14T10:30:40;7.30;99.90
41294;DHT22;27037;52.010;4.446;2023-03-14T10:33:21;7.30;99.90
41294;DHT22;27037;52.010;4.446;2023-03-14T10:38:35;7.40;99.90
41294;DHT22;27037;52.010;4.446;2023-03-14T10:41:12;7.30;99.90
41294;DHT22;27037;52.010;4.446;2023-03-14T10:43:40;7.30;99.90
41294;DHT22;27037;52.010;4.446;2023-03-14T10:46:11;7.30;99.90
41294;DHT22;27037;52.010;4.446;2023-03-14T10:48:38;7.40;99.90
41294;DHT22;27037;52.010;4.446;2023-03-14T10:53:48;7.50;99.90
41294;DHT22;27037;52.010;4.446;2023-03-14T10:56:17;7.50;99.90
41294;DHT22;27037;52.010;4.446;2023-03-14T10:58:45;7.40;99.90
41294;DHT22;27037;52.010;4.446;2023-03-14T11:01:36;7.40;99.90
41294;DHT22;27037;52.010;4.446;2023-03-14T11:07:33;7.50;99.90
41294;DHT22;27037;52.010;4.446;2023-03-14T11:21:31;8.00;99.90
41294;DHT22;27037;52.010;4.446;2023-03-14T11:24:02;8.00;99.90
41294;DHT22;27037;52.010;4.446;2023-03-14T11:31:35;8.20;99.90
41294;DHT22;27037;52.010;4.446;2023-03-14T11:34:10;8.20;99.90
41294;DHT22;27037;52.010;4.446;2023-03-14T11:36:43;8.40;99.90
41294;DHT22;27037;52.010;4.446;2023-03-14T11:39:17;8.40;99.90
41294;DHT22;27037;52.010;4.446;2023-03-14T11:41:46;8.50;99.90
41294;DHT22;27037;52.010;4.446;2023-03-14T11:44:43;8.50;99.90
41294;DHT22;27037;52.010;4.446;2023-03-14T11:47:29;8.50;99.90
41294;DHT22;27037;52.010;4.446;2023-03-14T11:52:52;8.60;99.90
41294;DHT22;27037;52.010;4.446;2023-03-14T11:55:35;8.60;99.90
41294;DHT22;27037;52.010;4.446;2023-03-14T11:58:20;8.50;99.90
41294;DHT22;27037;52.010;4.446;2023-03-14T12:00:49;8.30;99.90
41294;DHT22;27037;52.010;4.446;2023-03-14T12:05:54;8.30;99.90
41294;DHT22;27037;52.010;4.446;2023-03-14T12:08:42;8.30;99.90
41294;DHT22;27037;52.010;4.446;2023-03-14T12:13:57;8.40;99.90
41294;DHT22;27037;52.010;4.446;2023-03-14T12:18:49;8.30;99.90
41294;DHT22;27037;52.010;4.446;2023-03-14T12:21:15;8.30;99.90
41294;DHT22;27037;52.010;4.446;2023-03-14T12:23:49;8.30;99.90
41294;DHT22;27037;52.010;4.446;2023-03-14T12:26:21;8.30;99.90
41294;DHT22;27037;52.010;4.446;2023-03-14T12:44:42;8.60;99.90
41294;DHT22;27037;52.010;4.446;2023-03-14T12:49:50;8.90;99.90
41294;DHT22;27037;52.010;4.446;2023-03-14T12:55:00;9.30;99.90
41294;DHT22;27037;52.010;4.446;2023-03-14T12:57:36;9.30;99.90
41294;DHT22;27037;52.010;4.446;2023-03-14T13:00:24;9.30;99.90
41294;DHT22;27037;52.010;4.446;2023-03-14T13:03:12;9.30;99.90
41294;DHT22;27037;52.010;4.446;2023-03-14T13:05:55;9.40;99.90
41294;DHT22;27037;52.010;4.446;2023-03-14T13:11:05;9.30;98.20
41294;DHT22;27037;52.010;4.446;2023-03-14T13:13:34;9.10;95.30
41294;DHT22;27037;52.010;4.446;2023-03-14T13:16:03;9.00;97.10
41294;DHT22;27037;52.010;4.446;2023-03-14T13:18:41;8.90;98.70
41294;DHT22;27037;52.010;4.446;2023-03-14T13:24:26;8.80;99.40
41294;DHT22;27037;52.010;4.446;2023-03-14T13:26:54;8.70;99.60
41294;DHT22;27037;52.010;4.446;2023-03-14T13:29:29;8.60;98.90
41294;DHT22;27037;52.010;4.446;2023-03-14T13:32:13;8.50;99.40
41294;DHT22;27037;52.010;4.446;2023-03-14T13:34:41;8.50;95.20
41294;DHT22;27037;52.010;4.446;2023-03-14T13:37:22;8.40;97.20
41294;DHT22;27037;52.010;4.446;2023-03-14T13:39:53;8.30;98.00
41294;DHT22;27037;52.010;4.446;2023-03-14T13:42:21;8.30;98.80
41294;DHT22;27037;52.010;4.446;2023-03-14T13:44:47;8.30;97.70
41294;DHT22;27037;52.010;4.446;2023-03-14T13:47:21;8.30;98.40
41294;DHT22;27037;52.010;4.446;2023-03-14T13:49:47;8.20;97.70
41294;DHT22;27037;52.010;4.446;2023-03-14T13:55:03;8.10;99.40
41294;DHT22;27037;52.010;4.446;2023-03-14T13:58:00;8.10;98.70
41294;DHT22;27037;52.010;4.446;2023-03-14T14:00:26;8.10;99.30
41294;DHT22;27037;52.010;4.446;2023-03-14T14:02:57;8.10;99.60
41294;DHT22;27037;52.010;4.446;2023-03-14T14:05:26;8.20;98.80
41294;DHT22;27037;52.010;4.446;2023-03-14T14:07:53;8.10;97.90
41294;DHT22;27037;52.010;4.446;2023-03-14T14:10:19;8.10;97.20
41294;DHT22;27037;52.010;4.446;2023-03-14T14:15:16;8.00;95.80
41294;DHT22;27037;52.010;4.446;2023-03-14T14:17:58;8.00;96.60
41294;DHT22;27037;52.010;4.446;2023-03-14T14:20:48;8.00;97.60
41294;DHT22;27037;52.010;4.446;2023-03-14T14:23:20;7.90;99.10
41294;DHT22;27037;52.010;4.446;2023-03-14T14:25:53;7.90;99.40
41294;DHT22;27037;52.010;4.446;2023-03-14T14:28:28;7.80;99.90
41294;DHT22;27037;52.010;4.446;2023-03-14T14:36:22;7.80;99.90
41294;DHT22;27037;52.010;4.446;2023-03-14T14:41:29;7.90;99.90
41294;DHT22;27037;52.010;4.446;2023-03-14T14:43:56;7.90;99.90
41294;DHT22;27037;52.010;4.446;2023-03-14T14:46:22;8.00;99.90
41294;DHT22;27037;52.010;4.446;2023-03-14T14:48:48;8.00;99.90
41294;DHT22;27037;52.010;4.446;2023-03-14T14:51:24;8.00;99.90
41294;DHT22;27037;52.010;4.446;2023-03-14T14:54:01;8.10;99.40
41294;DHT22;27037;52.010;4.446;2023-03-14T14:56:28;8.10;99.30
41294;DHT22;27037;52.010;4.446;2023-03-14T14:59:01;8.10;98.60
41294;DHT22;27037;52.010;4.446;2023-03-14T15:01:38;8.00;96.40
41294;DHT22;27037;52.010;4.446;2023-03-14T15:04:14;8.00;96.70
41294;DHT22;27037;52.010;4.446;2023-03-14T15:06:43;8.00;96.60
41294;DHT22;27037;52.010;4.446;2023-03-14T15:09:14;8.00;96.60
41294;DHT22;27037;52.010;4.446;2023-03-14T15:11:43;8.00;97.00
41294;DHT22;27037;52.010;4.446;2023-03-14T15:14:08;8.00;97.40
41294;DHT22;27037;52.010;4.446;2023-03-14T15:16:34;7.90;97.00
41294;DHT22;27037;52.010;4.446;2023-03-14T15:19:02;7.90;97.20
41294;DHT22;27037;52.010;4.446;2023-03-14T15:21:31;7.90;97.30
41294;DHT22;27037;52.010;4.446;2023-03-14T15:23:57;7.80;97.40
41294;DHT22;27037;52.010;4.446;2023-03-14T15:26:27;7.80;97.00
41294;DHT22;27037;52.010;4.446;2023-03-14T15:28:53;7.80;97.10
41294;DHT22;27037;52.010;4.446;2023-03-14T15:31:19;7.70;97.20
41294;DHT22;27037;52.010;4.446;2023-03-14T15:33:46;7.70;97.20
41294;DHT22;27037;52.010;4.446;2023-03-14T15:36:27;7.70;96.90
41294;DHT22;27037;52.010;4.446;2023-03-14T15:38:54;7.70;97.20
41294;DHT22;27037;52.010;4.446;2023-03-14T15:41:22;7.70;97.10
41294;DHT22;27037;52.010;4.446;2023-03-14T15:43:48;7.70;97.50
41294;DHT22;27037;52.010;4.446;2023-03-14T15:46:15;7.80;97.10
41294;DHT22;27037;52.010;4.446;2023-03-14T15:48:43;7.70;96.40
41294;DHT22;27037;52.010;4.446;2023-03-14T15:51:09;7.70;96.90
41294;DHT22;27037;52.010;4.446;2023-03-14T15:53:34;7.70;97.40
41294;DHT22;27037;52.010;4.446;2023-03-14T15:56:04;7.60;98.20
41294;DHT22;27037;52.010;4.446;2023-03-14T15:58:30;7.60;98.90
41294;DHT22;27037;52.010;4.446;2023-03-14T16:01:00;7.60;99.00
41294;DHT22;27037;52.010;4.446;2023-03-14T16:03:27;7.60;98.10
41294;DHT22;27037;52.010;4.446;2023-03-14T16:05:52;7.50;97.70
41294;DHT22;27037;52.010;4.446;2023-03-14T16:08:18;7.50;98.30
41294;DHT22;27037;52.010;4.446;2023-03-14T16:10:45;7.50;98.70
41294;DHT22;27037;52.010;4.446;2023-03-14T16:13:11;7.40;98.90
41294;DHT22;27037;52.010;4.446;2023-03-14T16:15:37;7.40;99.00
41294;DHT22;27037;52.010;4.446;2023-03-14T16:18:02;7.40;97.80
41294;DHT22;27037;52.010;4.446;2023-03-14T16:20:28;7.40;98.60
41294;DHT22;27037;52.010;4.446;2023-03-14T16:22:54;7.40;99.10
41294;DHT22;27037;52.010;4.446;2023-03-14T16:25:20;7.40;99.70
41294;DHT22;27037;52.010;4.446;2023-03-14T16:27:46;7.50;99.90
41294;DHT22;27037;52.010;4.446;2023-03-14T16:30:12;7.50;99.90
41294;DHT22;27037;52.010;4.446;2023-03-14T16:32:38;7.50;99.90
41294;DHT22;27037;52.010;4.446;2023-03-14T16:35:04;7.50;99.90
41294;DHT22;27037;52.010;4.446;2023-03-14T16:37:30;7.40;99.90
41294;DHT22;27037;52.010;4.446;2023-03-14T16:39:55;7.40;99.90
41294;DHT22;27037;52.010;4.446;2023-03-14T16:42:21;7.40;99.90
41294;DHT22;27037;52.010;4.446;2023-03-14T16:44:47;7.40;99.90
41294;DHT22;27037;52.010;4.446;2023-03-14T16:47:13;7.40;99.90
41294;DHT22;27037;52.010;4.446;2023-03-14T16:49:38;7.40;99.90
41294;DHT22;27037;52.010;4.446;2023-03-14T16:52:05;7.40;99.90
41294;DHT22;27037;52.010;4.446;2023-03-14T16:54:32;7.40;99.90
41294;DHT22;27037;52.010;4.446;2023-03-14T16:56:58;7.30;99.90
41294;DHT22;27037;52.010;4.446;2023-03-14T16:59:24;7.30;99.90
41294;DHT22;27037;52.010;4.446;2023-03-14T17:01:53;7.30;99.90
41294;DHT22;27037;52.010;4.446;2023-03-14T17:04:20;7.20;99.90
41294;DHT22;27037;52.010;4.446;2023-03-14T17:06:45;7.10;99.90
41294;DHT22;27037;52.010;4.446;2023-03-14T17:09:11;7.10;99.90
41294;DHT22;27037;52.010;4.446;2023-03-14T17:11:36;7.00;99.00
41294;DHT22;27037;52.010;4.446;2023-03-14T17:14:03;6.90;98.50
41294;DHT22;27037;52.010;4.446;2023-03-14T17:16:29;6.90;98.10
41294;DHT22;27037;52.010;4.446;2023-03-14T17:18:54;6.80;98.20
41294;DHT22;27037;52.010;4.446;2023-03-14T17:21:20;6.80;98.20